Time;durP1;ratioP1;P1;durP2;ratioP2;P2;SDS_P1;SDS_P2;PMS_P1;PMS_P2;Temp;Humidity;BMP_temperature;BMP_pressure;BME280_temperature;BME280_humidity;BME280_pressure;Samples;Min_cycle;Max_cycle;Signal;HPM_P1;HPM_P2
2023/09/27 00:01:23;;;;;;;7.07;6.37;;;15.20;99.90;;;;;;5073151;28;20440;-60
2023/09/27 00:03:50;;;;;;;9.70;7.00;;;15.20;99.90;;;;;;5073154;28;20525;-61
2023/09/27 00:06:17;;;;;;;7.00;6.30;;;15.20;99.90;;;;;;5073251;28;20493;-60
2023/09/27 00:08:45;;;;;;;6.20;5.60;;;15.20;99.90;;;;;;5073080;28;20439;-58
2023/09/27 00:11:13;;;;;;;5.97;5.37;;;15.20;99.90;;;;;;5072674;28;20948;-60
2023/09/27 00:13:39;;;;;;;5.90;5.30;;;15.20;99.90;;;;;;5073270;28;20459;-58
2023/09/27 00:16:06;;;;;;;9.13;6.43;;;15.20;99.90;;;;;;5072620;28;20526;-61
2023/09/27 00:18:33;;;;;;;6.23;5.57;;;15.10;99.90;;;;;;5072682;28;20446;-60
2023/09/27 00:21:00;;;;;;;7.10;5.70;;;15.10;99.90;;;;;;5073240;28;20431;-61
2023/09/27 00:23:26;;;;;;;5.70;5.20;;;15.10;99.90;;;;;;5073138;28;20465;-60
2023/09/27 00:25:54;;;;;;;6.20;5.60;;;15.10;99.90;;;;;;5073218;28;20462;-61
2023/09/27 00:28:21;;;;;;;6.90;5.53;;;15.10;99.90;;;;;;5075919;28;20431;-60
2023/09/27 00:30:50;;;;;;;6.57;5.90;;;15.10;99.90;;;;;;5077270;28;20447;-61
2023/09/27 00:33:17;;;;;;;6.27;5.67;;;15.10;99.90;;;;;;5078347;28;20443;-61
2023/09/27 00:35:48;;;;;;;7.30;6.40;;;15.00;99.90;;;;;;5077576;28;20424;-61
2023/09/27 00:38:15;;;;;;;6.00;5.40;;;15.00;99.90;;;;;;5077523;28;20459;-61
2023/09/27 00:40:45;;;;;;;6.77;5.10;;;15.00;99.90;;;;;;5076763;28;20439;-60
2023/09/27 00:43:25;;;;;;;6.67;5.97;;;15.00;99.90;;;;;;5076841;28;20438;-60
2023/09/27 00:45:53;;;;;;;6.33;5.73;;;15.00;99.90;;;;;;5078052;28;20741;-58
2023/09/27 00:48:20;;;;;;;6.90;6.30;;;15.00;99.90;;;;;;5076464;28;20533;-60
2023/09/27 00:50:47;;;;;;;6.30;5.67;;;14.90;99.90;;;;;;5076812;28;20446;-61
2023/09/27 00:53:14;;;;;;;6.53;5.93;;;14.90;99.90;;;;;;5076518;28;20827;-60
2023/09/27 00:55:42;;;;;;;6.23;5.70;;;14.90;99.90;;;;;;5076807;28;20759;-61
2023/09/27 00:58:08;;;;;;;6.17;5.67;;;14.90;99.90;;;;;;5076397;28;20509;-60
2023/09/27 01:00:39;;;;;;;7.60;6.23;;;14.80;99.90;;;;;;5076608;28;20442;-60
2023/09/27 01:03:06;;;;;;;6.07;5.30;;;14.80;99.90;;;;;;5077378;28;20435;-60
2023/09/27 01:05:32;;;;;;;6.60;6.00;;;14.80;99.90;;;;;;5076584;28;20443;-60
2023/09/27 01:07:59;;;;;;;6.20;5.60;;;14.80;99.90;;;;;;5076914;28;20439;-59
2023/09/27 01:10:26;;;;;;;7.10;6.10;;;14.70;99.90;;;;;;5082736;28;20436;-60
2023/09/27 01:12:53;;;;;;;5.57;5.17;;;14.70;99.90;;;;;;5082564;28;20447;-61
2023/09/27 01:15:20;;;;;;;6.07;5.53;;;14.70;99.90;;;;;;5077105;28;20465;-60
2023/09/27 01:17:55;;;;;;;7.07;5.60;;;14.70;99.90;;;;;;5075841;28;20471;-60
2023/09/27 01:20:22;;;;;;;11.43;5.87;;;14.70;99.90;;;;;;5076286;28;20434;-60
2023/09/27 01:22:55;;;;;;;8.07;7.27;;;14.70;99.90;;;;;;5075901;28;20449;-60
2023/09/27 01:25:23;;;;;;;6.00;5.50;;;14.70;99.90;;;;;;5075833;28;20459;-60
2023/09/27 01:27:49;;;;;;;6.37;5.77;;;14.60;99.90;;;;;;5075676;28;20440;-58
2023/09/27 01:30:16;;;;;;;7.67;5.30;;;14.60;99.90;;;;;;5075844;28;20435;-61
2023/09/27 01:32:43;;;;;;;6.53;5.93;;;14.60;99.90;;;;;;5076303;28;20435;-59
2023/09/27 01:35:10;;;;;;;9.50;5.57;;;14.60;99.90;;;;;;5075262;28;20564;-60
2023/09/27 01:37:37;;;;;;;5.83;5.30;;;14.50;99.90;;;;;;5075788;28;20478;-60
2023/09/27 01:40:09;;;;;;;6.07;5.53;;;14.50;99.90;;;;;;5074704;28;20461;-60
2023/09/27 01:42:37;;;;;;;5.90;5.30;;;14.40;99.90;;;;;;5075501;28;20435;-60
2023/09/27 01:45:05;;;;;;;6.80;6.00;;;14.40;99.90;;;;;;5075360;28;20470;-60
2023/09/27 01:47:32;;;;;;;6.57;5.97;;;14.40;99.90;;;;;;5075219;28;20437;-59
2023/09/27 01:49:59;;;;;;;7.53;5.90;;;14.40;99.90;;;;;;5075211;28;20446;-60
2023/09/27 01:52:26;;;;;;;7.00;6.40;;;14.40;99.90;;;;;;5075372;28;20438;-60
2023/09/27 01:54:52;;;;;;;6.43;5.93;;;14.30;99.90;;;;;;5074912;28;20463;-60
2023/09/27 01:57:20;;;;;;;6.27;5.70;;;14.30;99.90;;;;;;5075378;28;20491;-60
2023/09/27 01:59:47;;;;;;;6.27;5.67;;;14.30;99.90;;;;;;5075453;28;20450;-61
2023/09/27 02:02:14;;;;;;;6.23;5.63;;;14.20;99.90;;;;;;5076003;28;20819;-60
2023/09/27 02:04:41;;;;;;;6.30;5.70;;;14.20;99.90;;;;;;5076106;28;20844;-61
2023/09/27 02:07:07;;;;;;;6.70;6.10;;;14.20;99.90;;;;;;5076441;28;20457;-60
2023/09/27 02:09:34;;;;;;;6.93;6.33;;;14.20;99.90;;;;;;5077045;28;20446;-60
2023/09/27 02:12:01;;;;;;;7.37;5.83;;;14.10;99.90;;;;;;5076805;28;20508;-59
2023/09/27 02:14:29;;;;;;;5.70;5.20;;;14.10;99.90;;;;;;5076043;28;20512;-59
2023/09/27 02:16:56;;;;;;;8.23;6.10;;;14.10;99.90;;;;;;5076308;28;20451;-60
2023/09/27 02:19:23;;;;;;;6.80;6.10;;;14.10;99.90;;;;;;5075858;28;20489;-61
2023/09/27 02:21:49;;;;;;;6.87;6.10;;;14.10;99.90;;;;;;5074660;28;20832;-60
2023/09/27 02:24:16;;;;;;;6.13;5.63;;;14.00;99.90;;;;;;5074892;28;20460;-60
2023/09/27 02:26:44;;;;;;;7.80;7.10;;;14.00;99.90;;;;;;5075537;28;20804;-60
2023/09/27 02:29:10;;;;;;;6.90;6.17;;;14.00;99.90;;;;;;5075557;28;20439;-60
2023/09/27 02:31:38;;;;;;;5.87;5.37;;;14.00;99.90;;;;;;5075597;28;20442;-59
2023/09/27 02:34:05;;;;;;;8.83;5.80;;;13.90;99.90;;;;;;5099893;22;20475;-60
2023/09/27 02:36:32;;;;;;;6.47;5.97;;;13.90;99.90;;;;;;5094354;28;20533;-61
2023/09/27 02:38:59;;;;;;;5.30;4.90;;;13.90;99.90;;;;;;5094886;28;20531;-60
2023/09/27 02:41:25;;;;;;;6.40;5.80;;;13.90;99.90;;;;;;5094606;28;20442;-60
2023/09/27 02:43:52;;;;;;;6.43;5.83;;;13.80;99.90;;;;;;5094485;28;20456;-60
2023/09/27 02:46:19;;;;;;;6.70;6.00;;;13.80;99.90;;;;;;5094354;28;20820;-60
2023/09/27 02:48:47;;;;;;;6.60;5.07;;;13.80;99.90;;;;;;5094197;28;20783;-60
2023/09/27 02:51:15;;;;;;;6.80;6.10;;;13.80;99.90;;;;;;5093339;28;20440;-60
2023/09/27 02:53:42;;;;;;;6.27;5.67;;;13.70;99.90;;;;;;5093990;28;20443;-61
2023/09/27 02:56:11;;;;;;;6.77;6.17;;;13.70;99.90;;;;;;5094344;28;20496;-60
2023/09/27 02:58:37;;;;;;;11.10;6.00;;;13.70;99.90;;;;;;5094323;28;20481;-60
2023/09/27 03:01:04;;;;;;;6.87;6.27;;;13.70;99.90;;;;;;5094434;28;20454;-60
2023/09/27 03:03:31;;;;;;;7.57;6.87;;;13.70;99.90;;;;;;5094319;28;20812;-60
2023/09/27 03:05:59;;;;;;;6.60;6.00;;;13.70;99.90;;;;;;5094048;28;20457;-60
2023/09/27 03:08:26;;;;;;;7.23;5.83;;;13.70;99.90;;;;;;5094009;28;20842;-60
2023/09/27 03:10:53;;;;;;;7.17;6.47;;;13.70;99.90;;;;;;5094013;28;20441;-61
2023/09/27 03:13:20;;;;;;;7.00;6.30;;;13.60;99.90;;;;;;5094691;28;20443;-60
2023/09/27 03:15:56;;;;;;;6.33;5.73;;;13.60;99.90;;;;;;5094337;28;20915;-60
2023/09/27 03:18:22;;;;;;;11.23;6.80;;;13.60;99.90;;;;;;5093861;28;20879;-61
2023/09/27 03:20:51;;;;;;;6.73;6.13;;;13.60;99.90;;;;;;5094323;28;20435;-61
2023/09/27 03:23:19;;;;;;;7.67;6.87;;;13.60;99.90;;;;;;5093762;28;20955;-61
2023/09/27 03:25:49;;;;;;;7.53;6.70;;;13.70;99.90;;;;;;5093666;28;20510;-61
2023/09/27 03:28:15;;;;;;;6.60;6.00;;;13.70;99.90;;;;;;5093892;28;20531;-60
2023/09/27 03:30:42;;;;;;;7.30;6.50;;;13.70;99.90;;;;;;5093989;28;20443;-60
2023/09/27 03:33:09;;;;;;;7.13;6.43;;;13.60;99.90;;;;;;5094129;28;20457;-60
2023/09/27 03:35:36;;;;;;;8.13;6.40;;;13.60;99.90;;;;;;5093126;28;20473;-60
2023/09/27 03:38:03;;;;;;;7.20;6.50;;;13.60;99.90;;;;;;5094381;28;20474;-59
2023/09/27 03:40:31;;;;;;;7.40;6.70;;;13.60;99.90;;;;;;5093382;28;20441;-59
2023/09/27 03:42:58;;;;;;;7.17;6.50;;;13.50;99.90;;;;;;5093825;28;20457;-59
2023/09/27 03:45:26;;;;;;;7.07;6.37;;;13.50;99.90;;;;;;5093640;28;20461;-59
2023/09/27 03:47:52;;;;;;;7.07;6.47;;;13.50;99.90;;;;;;5093882;28;20439;-60
2023/09/27 03:50:19;;;;;;;7.47;6.67;;;13.50;99.90;;;;;;5093501;28;20449;-60
2023/09/27 03:52:46;;;;;;;7.60;6.90;;;13.40;99.90;;;;;;5094680;28;20442;-59
2023/09/27 03:55:13;;;;;;;7.20;6.60;;;13.40;99.90;;;;;;5095370;28;20457;-59
2023/09/27 03:57:41;;;;;;;9.70;7.40;;;13.40;99.90;;;;;;5095334;28;20477;-60
2023/09/27 04:00:12;;;;;;;7.23;6.53;;;13.40;99.90;;;;;;5095103;28;20500;-59
2023/09/27 04:02:39;;;;;;;7.80;6.83;;;13.40;99.90;;;;;;5147221;22;20846;-59
2023/09/27 04:05:06;;;;;;;8.60;7.40;;;13.30;99.90;;;;;;5135576;27;20936;-59
2023/09/27 04:07:33;;;;;;;8.40;7.60;;;13.30;99.90;;;;;;5136066;27;20440;-59
2023/09/27 04:12:14;;;;;;;7.30;6.60;;;13.30;99.90;;;;;;5112903;27;1421607;-84
2023/09/27 04:14:41;;;;;;;7.53;6.80;;;13.30;99.90;;;;;;5176731;27;20426;-82
2023/09/27 04:17:09;;;;;;;6.83;6.20;;;13.20;99.90;;;;;;5167941;27;20440;-82
2023/09/27 04:19:35;;;;;;;8.90;8.10;;;13.20;99.90;;;;;;5163968;27;20467;-82
2023/09/27 04:22:03;;;;;;;9.93;8.40;;;13.20;99.90;;;;;;5165253;27;20504;-82
2023/09/27 04:24:30;;;;;;;7.33;6.67;;;13.10;99.90;;;;;;5172813;27;20456;-82
2023/09/27 04:26:57;;;;;;;9.20;7.60;;;13.10;99.90;;;;;;5162667;27;20440;-79
2023/09/27 04:29:26;;;;;;;8.30;7.50;;;13.10;99.90;;;;;;5171394;27;20423;-82
2023/09/27 04:31:53;;;;;;;9.50;7.77;;;13.10;99.90;;;;;;5170496;27;20487;-81
2023/09/27 04:34:20;;;;;;;9.20;7.53;;;13.10;99.90;;;;;;5164978;27;20471;-81
2023/09/27 04:36:47;;;;;;;8.27;7.47;;;13.00;99.90;;;;;;5164210;27;20438;-84
2023/09/27 04:39:16;;;;;;;8.37;7.67;;;13.00;99.90;;;;;;5163658;27;20432;-84
2023/09/27 04:41:46;;;;;;;8.03;7.33;;;13.00;99.90;;;;;;5160577;27;20457;-87
2023/09/27 04:44:13;;;;;;;10.73;7.53;;;13.00;99.90;;;;;;5164719;27;20965;-86
2023/09/27 04:46:41;;;;;;;8.47;7.57;;;13.00;99.90;;;;;;5162918;27;20473;-87
2023/09/27 04:49:08;;;;;;;7.50;6.83;;;13.00;99.90;;;;;;5175283;27;20422;-84
2023/09/27 04:51:35;;;;;;;8.43;7.70;;;13.00;99.90;;;;;;5176538;27;20494;-81
2023/09/27 04:54:03;;;;;;;8.90;8.00;;;12.90;99.90;;;;;;5176293;27;20417;-86
2023/09/27 04:56:31;;;;;;;9.23;8.43;;;12.90;99.90;;;;;;5174614;27;20460;-88
2023/09/27 04:59:01;;;;;;;11.30;9.10;;;12.90;99.90;;;;;;5166888;27;20465;-87
2023/09/27 05:01:28;;;;;;;13.70;9.43;;;12.90;99.90;;;;;;5161682;27;20519;-85
2023/09/27 05:03:56;;;;;;;11.00;9.90;;;12.90;99.90;;;;;;5163784;27;20447;-87
2023/09/27 05:06:23;;;;;;;10.17;9.27;;;12.90;99.90;;;;;;5164325;27;20447;-86
2023/09/27 05:08:50;;;;;;;8.93;8.13;;;12.90;99.90;;;;;;5163273;27;20532;-86
2023/09/27 05:11:18;;;;;;;9.77;8.77;;;12.90;99.90;;;;;;5164283;27;20493;-85
2023/09/27 05:13:46;;;;;;;8.43;7.47;;;12.90;99.90;;;;;;5164327;27;20440;-86
2023/09/27 05:16:13;;;;;;;11.73;7.80;;;12.90;99.90;;;;;;5163161;27;20443;-85
2023/09/27 05:18:42;;;;;;;12.67;10.10;;;12.90;99.90;;;;;;5173195;27;20445;-84
2023/09/27 05:21:11;;;;;;;9.90;9.00;;;12.90;99.90;;;;;;5172694;27;20458;-80
2023/09/27 05:23:37;;;;;;;9.10;8.20;;;12.90;99.90;;;;;;5159375;27;20488;-85
2023/09/27 05:26:04;;;;;;;9.87;8.30;;;12.90;99.90;;;;;;5148953;27;20514;-84
2023/09/27 05:28:32;;;;;;;10.83;7.83;;;12.90;99.90;;;;;;5152057;27;20467;-84
2023/09/27 05:31:00;;;;;;;13.10;8.20;;;12.90;99.90;;;;;;5155618;27;20482;-87
2023/09/27 05:33:27;;;;;;;9.10;8.30;;;13.00;99.90;;;;;;5154594;27;20452;-84
2023/09/27 05:35:54;;;;;;;9.43;7.97;;;13.00;99.90;;;;;;5155096;27;20448;-86
2023/09/27 05:38:23;;;;;;;11.63;8.70;;;13.10;99.90;;;;;;5157998;27;20431;-85
2023/09/27 05:40:50;;;;;;;10.90;7.47;;;13.10;99.90;;;;;;5156222;27;20464;-85
2023/09/27 05:43:17;;;;;;;10.17;7.60;;;13.20;99.90;;;;;;5157031;27;20473;-87
2023/09/27 05:45:44;;;;;;;8.40;7.23;;;13.20;99.90;;;;;;5157309;27;20436;-86
2023/09/27 05:48:13;;;;;;;10.97;8.60;;;13.20;99.90;;;;;;5155694;27;20428;-84
2023/09/27 05:50:44;;;;;;;9.43;8.57;;;13.30;99.90;;;;;;5158191;27;20480;-85
2023/09/27 05:53:12;;;;;;;10.90;9.37;;;13.30;99.90;;;;;;5157990;27;20436;-84
2023/09/27 05:55:42;;;;;;;9.50;8.50;;;13.40;99.90;;;;;;5150259;27;20544;-86
2023/09/27 05:58:09;;;;;;;9.83;8.37;;;13.40;99.90;;;;;;5156932;27;20449;-84
2023/09/27 06:00:40;;;;;;;8.40;7.60;;;13.50;99.90;;;;;;5159079;27;20491;-86
2023/09/27 06:03:08;;;;;;;8.70;7.90;;;13.50;99.90;;;;;;5157337;27;20434;-86
2023/09/27 06:05:35;;;;;;;9.20;8.30;;;13.50;99.90;;;;;;5156911;27;20445;-86
2023/09/27 06:08:03;;;;;;;9.40;7.70;;;13.60;99.90;;;;;;5159636;27;20412;-86
2023/09/27 06:10:30;;;;;;;8.70;7.90;;;13.70;99.90;;;;;;5157048;27;20429;-84
2023/09/27 06:12:58;;;;;;;8.40;7.60;;;13.80;99.90;;;;;;5158184;27;20413;-86
2023/09/27 06:15:25;;;;;;;9.27;8.37;;;13.90;99.90;;;;;;5156460;27;20480;-84
2023/09/27 06:17:52;;;;;;;10.60;7.80;;;13.90;99.90;;;;;;5156256;27;20452;-86
2023/09/27 06:20:22;;;;;;;11.20;7.20;;;14.00;99.90;;;;;;5157555;27;20448;-85
2023/09/27 06:22:50;;;;;;;8.50;7.50;;;14.10;99.90;;;;;;5150454;27;20523;-85
2023/09/27 06:25:17;;;;;;;7.30;6.60;;;14.20;99.90;;;;;;5153960;27;20436;-85
2023/09/27 06:27:44;;;;;;;7.40;6.27;;;14.30;99.90;;;;;;5159145;27;20468;-87
2023/09/27 06:30:14;;;;;;;8.67;7.20;;;14.30;99.90;;;;;;5155628;27;20478;-86
2023/09/27 06:32:41;;;;;;;8.03;7.17;;;14.50;99.90;;;;;;5155314;27;20537;-88
2023/09/27 06:35:12;;;;;;;8.13;7.33;;;14.60;99.90;;;;;;5151959;27;20456;-87
2023/09/27 06:37:40;;;;;;;8.10;7.40;;;14.70;99.90;;;;;;5157145;27;20488;-86
2023/09/27 06:40:09;;;;;;;8.37;6.57;;;14.80;99.90;;;;;;5160532;27;20460;-86
2023/09/27 06:42:43;;;;;;;8.73;6.60;;;14.90;99.90;;;;;;5160197;27;20441;-89
2023/09/27 06:45:11;;;;;;;6.97;6.37;;;14.90;99.90;;;;;;5098097;22;20499;-59
2023/09/27 06:47:41;;;;;;;7.90;6.57;;;15.00;99.90;;;;;;5053529;28;20952;-59
2023/09/27 06:50:09;;;;;;;8.07;7.27;;;15.10;99.90;;;;;;5053581;28;20425;-59
2023/09/27 06:52:37;;;;;;;7.80;7.00;;;15.30;99.90;;;;;;5053771;28;20918;-58
2023/09/27 06:55:06;;;;;;;8.80;7.80;;;15.30;99.90;;;;;;5054152;28;20505;-58
2023/09/27 06:57:33;;;;;;;7.73;7.03;;;15.50;99.90;;;;;;5053969;28;20812;-60
2023/09/27 06:59:59;;;;;;;9.40;8.10;;;15.60;99.90;;;;;;5054451;28;20436;-59
2023/09/27 07:02:26;;;;;;;8.23;7.53;;;15.70;99.90;;;;;;5053797;28;20452;-58
2023/09/27 07:04:54;;;;;;;9.50;7.67;;;15.80;99.90;;;;;;5054279;28;20448;-58
2023/09/27 07:07:21;;;;;;;7.10;6.50;;;15.90;99.90;;;;;;5053655;28;20439;-59
2023/09/27 07:09:48;;;;;;;7.13;6.43;;;16.00;99.90;;;;;;5053438;28;20452;-58
2023/09/27 07:12:14;;;;;;;6.37;5.77;;;16.10;99.90;;;;;;5053277;28;20579;-59
2023/09/27 07:14:41;;;;;;;7.80;6.30;;;16.30;99.90;;;;;;5054243;28;20478;-60
2023/09/27 07:17:09;;;;;;;6.93;6.13;;;16.40;99.90;;;;;;5053690;28;20438;-57
2023/09/27 07:19:35;;;;;;;6.03;5.43;;;16.50;99.90;;;;;;5053176;28;20947;-57
2023/09/27 07:22:04;;;;;;;6.67;5.30;;;16.70;99.90;;;;;;5053382;28;20493;-59
2023/09/27 07:24:31;;;;;;;9.23;5.30;;;16.80;99.90;;;;;;5053408;28;20528;-58
2023/09/27 07:26:58;;;;;;;6.17;5.03;;;16.90;99.90;;;;;;5053028;28;20460;-58
2023/09/27 07:29:25;;;;;;;5.07;4.67;;;17.10;99.90;;;;;;5052919;28;20945;-58
2023/09/27 07:31:52;;;;;;;7.33;4.90;;;17.20;99.90;;;;;;5052570;28;20847;-57
2023/09/27 07:34:18;;;;;;;4.93;4.53;;;17.40;99.90;;;;;;5052637;28;20443;-59
2023/09/27 07:36:45;;;;;;;6.00;5.40;;;17.50;99.90;;;;;;5053091;28;20444;-58
2023/09/27 07:39:15;;;;;;;5.77;5.17;;;17.60;99.90;;;;;;5052958;28;20440;-58
2023/09/27 07:41:42;;;;;;;5.37;4.83;;;17.80;99.90;;;;;;5052653;28;20464;-58
2023/09/27 07:44:10;;;;;;;7.60;5.13;;;18.00;99.90;;;;;;5052291;28;21006;-58
2023/09/27 07:46:36;;;;;;;5.83;4.13;;;18.10;99.90;;;;;;5052797;28;20498;-60
2023/09/27 07:49:03;;;;;;;5.30;4.80;;;18.20;99.90;;;;;;5052874;28;20440;-58
2023/09/27 07:51:30;;;;;;;5.30;4.73;;;18.30;99.90;;;;;;5052562;28;20531;-59
2023/09/27 07:53:57;;;;;;;5.10;4.63;;;18.40;99.90;;;;;;5052878;28;20447;-58
2023/09/27 07:56:26;;;;;;;5.43;4.80;;;18.50;99.90;;;;;;5053072;28;20442;-59
2023/09/27 07:58:54;;;;;;;4.90;4.50;;;18.70;99.90;;;;;;5053398;28;20837;-59
2023/09/27 08:01:21;;;;;;;5.40;4.90;;;18.80;99.90;;;;;;5052682;28;20987;-59
2023/09/27 08:03:49;;;;;;;6.47;5.87;;;19.00;99.90;;;;;;5053255;28;20503;-59
2023/09/27 08:06:17;;;;;;;5.73;4.83;;;19.10;99.90;;;;;;5052946;28;20881;-57
2023/09/27 08:08:43;;;;;;;5.00;4.50;;;19.20;99.90;;;;;;5053098;28;20443;-58
2023/09/27 08:11:13;;;;;;;6.33;5.10;;;19.40;99.90;;;;;;5052502;28;20809;-58
2023/09/27 08:13:41;;;;;;;5.07;4.53;;;19.40;99.90;;;;;;5053241;28;20455;-57
2023/09/27 08:16:08;;;;;;;5.70;4.13;;;19.60;99.90;;;;;;5053021;28;20443;-58
2023/09/27 08:18:35;;;;;;;5.93;4.90;;;19.70;99.90;;;;;;5053345;28;20446;-58
2023/09/27 08:21:03;;;;;;;7.70;4.40;;;19.80;99.90;;;;;;5052961;28;20446;-58
2023/09/27 08:23:30;;;;;;;5.80;5.13;;;19.90;99.90;;;;;;5052482;28;20930;-57
2023/09/27 08:25:57;;;;;;;8.03;4.73;;;20.00;99.90;;;;;;5052479;28;20918;-58
2023/09/27 08:28:24;;;;;;;5.13;4.57;;;20.10;99.90;;;;;;5052890;28;20439;-58
2023/09/27 08:30:52;;;;;;;4.70;4.30;;;20.20;99.90;;;;;;5052650;28;20493;-58
2023/09/27 08:33:19;;;;;;;5.70;3.83;;;20.30;99.90;;;;;;5052813;28;20485;-57
2023/09/27 08:35:46;;;;;;;4.40;4.10;;;20.40;99.90;;;;;;5053137;28;20436;-56
2023/09/27 08:38:13;;;;;;;5.87;4.40;;;20.60;99.90;;;;;;5052795;28;20441;-57
2023/09/27 08:40:40;;;;;;;4.57;4.17;;;20.70;99.90;;;;;;5052434;28;20954;-57
2023/09/27 08:43:07;;;;;;;3.97;3.60;;;20.70;99.90;;;;;;5052479;28;20975;-57
2023/09/27 08:45:37;;;;;;;4.40;3.73;;;20.80;99.90;;;;;;5052058;28;20948;-57
2023/09/27 08:48:09;;;;;;;5.33;4.37;;;20.80;99.70;;;;;;5052346;28;20482;-57
2023/09/27 08:50:38;;;;;;;4.73;4.20;;;20.90;99.30;;;;;;5052678;28;20426;-59
2023/09/27 08:53:05;;;;;;;5.00;4.53;;;21.00;98.80;;;;;;5052396;28;20569;-58
2023/09/27 08:55:32;;;;;;;6.60;4.57;;;21.10;98.40;;;;;;5052515;28;20450;-58
2023/09/27 08:58:00;;;;;;;4.53;4.10;;;21.20;98.10;;;;;;5054490;28;20535;-58
2023/09/27 09:00:28;;;;;;;5.47;4.97;;;21.20;97.60;;;;;;5056598;28;20451;-57
2023/09/27 09:02:57;;;;;;;4.40;4.00;;;21.20;97.10;;;;;;5056190;28;20471;-57
2023/09/27 09:05:27;;;;;;;4.07;3.73;;;21.20;96.70;;;;;;5055907;28;20447;-57
2023/09/27 09:07:55;;;;;;;4.53;4.10;;;21.10;96.60;;;;;;5056964;28;20767;-57
2023/09/27 09:10:23;;;;;;;4.40;3.80;;;21.00;96.50;;;;;;5055836;28;20446;-58
2023/09/27 09:12:51;;;;;;;4.43;4.03;;;20.90;96.30;;;;;;5055858;28;21006;-58
2023/09/27 09:15:35;;;;;;;4.10;3.70;;;20.90;95.90;;;;;;5056496;28;20458;-59
2023/09/27 09:18:06;;;;;;;3.77;3.40;;;21.00;95.50;;;;;;5056262;28;20433;-59
2023/09/27 09:20:48;;;;;;;3.07;2.80;;;21.10;95.00;;;;;;5055617;28;20488;-58
2023/09/27 09:23:29;;;;;;;3.63;3.33;;;21.20;94.30;;;;;;5056148;28;20516;-58
2023/09/27 09:25:56;;;;;;;4.40;4.00;;;21.20;93.50;;;;;;5055891;28;20957;-59
2023/09/27 09:28:24;;;;;;;4.97;4.20;;;21.20;93.00;;;;;;5055760;28;20446;-59
2023/09/27 09:30:51;;;;;;;6.70;4.70;;;21.30;92.50;;;;;;5056146;28;20449;-58
2023/09/27 09:33:19;;;;;;;3.80;3.50;;;21.30;91.80;;;;;;5056042;28;20991;-59
2023/09/27 09:35:48;;;;;;;4.53;3.87;;;21.40;91.20;;;;;;5055635;28;20940;-58
2023/09/27 09:38:25;;;;;;;4.40;4.07;;;21.50;90.80;;;;;;5055843;28;20446;-58
2023/09/27 09:40:53;;;;;;;6.33;4.07;;;21.50;90.20;;;;;;5055626;28;20428;-59
2023/09/27 09:43:29;;;;;;;5.10;3.93;;;21.60;89.40;;;;;;5055665;28;20786;-58
2023/09/27 09:45:56;;;;;;;5.70;4.20;;;21.70;87.70;;;;;;5056406;28;20420;-58
2023/09/27 09:48:23;;;;;;;3.97;3.57;;;21.70;86.50;;;;;;5056018;28;20458;-59
2023/09/27 09:50:51;;;;;;;4.20;3.80;;;21.90;85.50;;;;;;5055311;28;20543;-58
2023/09/27 09:53:20;;;;;;;5.57;4.00;;;22.10;84.20;;;;;;5054825;28;20486;-57
2023/09/27 09:55:49;;;;;;;5.70;4.37;;;22.10;83.00;;;;;;5055054;28;20447;-58
2023/09/27 09:58:28;;;;;;;3.80;3.50;;;22.10;82.00;;;;;;5054872;28;20475;-59
2023/09/27 10:00:57;;;;;;;4.17;3.73;;;22.20;81.20;;;;;;5054968;28;20431;-59
2023/09/27 10:03:30;;;;;;;4.30;3.90;;;22.40;80.00;;;;;;5055085;28;20439;-58
2023/09/27 10:06:01;;;;;;;4.37;3.97;;;22.50;78.90;;;;;;5054925;28;20479;-58
2023/09/27 10:08:33;;;;;;;3.87;2.67;;;22.70;77.50;;;;;;5055421;28;20424;-60
2023/09/27 10:11:01;;;;;;;4.43;3.80;;;22.80;76.20;;;;;;5054772;28;20425;-58
2023/09/27 10:13:28;;;;;;;5.63;4.10;;;23.00;75.30;;;;;;5054607;28;20475;-58
2023/09/27 10:15:55;;;;;;;5.00;3.47;;;23.10;74.60;;;;;;5054859;28;20443;-56
2023/09/27 10:18:37;;;;;;;3.70;3.40;;;23.20;74.10;;;;;;5054919;28;20535;-58
2023/09/27 10:21:08;;;;;;;3.73;3.43;;;23.30;73.90;;;;;;5054656;28;20459;-57
2023/09/27 10:23:36;;;;;;;6.17;4.40;;;23.40;73.60;;;;;;5054809;28;20416;-59
2023/09/27 10:26:18;;;;;;;3.80;3.47;;;23.50;73.00;;;;;;5054444;28;20466;-58
2023/09/27 10:29:12;;;;;;;4.33;3.50;;;23.70;72.50;;;;;;5054533;28;20440;-58
2023/09/27 10:32:20;;;;;;;4.60;3.70;;;23.80;72.00;;;;;;5048103;28;20843;-58
2023/09/27 10:34:47;;;;;;;4.60;3.40;;;24.10;71.60;;;;;;5054068;28;20427;-56
2023/09/27 10:37:17;;;;;;;4.47;3.20;;;24.20;71.40;;;;;;5053954;28;20922;-59
2023/09/27 10:40:17;;;;;;;4.70;3.50;;;24.30;69.90;;;;;;5054307;28;20448;-59
2023/09/27 10:42:44;;;;;;;4.13;3.10;;;24.40;69.40;;;;;;5053604;28;20464;-60
2023/09/27 10:45:11;;;;;;;4.30;3.33;;;24.50;68.90;;;;;;5054685;28;20448;-59
2023/09/27 10:47:38;;;;;;;7.40;4.10;;;24.60;68.50;;;;;;5054118;28;20938;-58
2023/09/27 10:50:05;;;;;;;4.50;3.30;;;24.70;68.10;;;;;;5054160;28;20438;-58
2023/09/27 10:52:33;;;;;;;3.30;3.00;;;24.90;67.60;;;;;;5053788;28;20493;-59
2023/09/27 10:55:09;;;;;;;4.37;3.23;;;25.00;66.80;;;;;;5054133;28;20436;-60
2023/09/27 10:57:37;;;;;;;4.40;2.90;;;25.10;65.90;;;;;;5054256;28;20424;-60
2023/09/27 11:00:10;;;;;;;3.57;3.27;;;25.20;65.50;;;;;;5054050;28;20501;-59
2023/09/27 11:02:37;;;;;;;4.30;2.80;;;25.30;65.20;;;;;;5053796;28;20794;-59
2023/09/27 11:05:05;;;;;;;4.23;2.90;;;25.30;64.80;;;;;;5053820;28;20820;-59
2023/09/27 11:07:51;;;;;;;7.03;3.57;;;25.30;64.20;;;;;;5053411;28;20790;-58
2023/09/27 11:10:29;;;;;;;4.20;3.80;;;25.30;63.50;;;;;;5054362;28;20420;-58
2023/09/27 11:13:09;;;;;;;3.20;2.83;;;25.30;63.10;;;;;;5053137;28;20860;-58
2023/09/27 11:15:36;;;;;;;4.80;3.17;;;25.40;62.40;;;;;;5053999;28;20428;-56
2023/09/27 11:18:04;;;;;;;3.63;3.30;;;25.40;62.20;;;;;;5053496;28;20515;-60
2023/09/27 11:20:31;;;;;;;7.97;3.40;;;25.40;62.20;;;;;;5053251;28;20443;-58
2023/09/27 11:23:01;;;;;;;3.70;3.40;;;25.40;62.20;;;;;;5053911;28;20456;-59
2023/09/27 11:25:28;;;;;;;3.50;3.20;;;25.40;62.10;;;;;;5055483;28;20486;-59
2023/09/27 11:27:56;;;;;;;3.77;2.90;;;25.40;62.00;;;;;;5054175;28;20850;-59
2023/09/27 11:30:33;;;;;;;3.30;3.00;;;25.30;62.10;;;;;;5054487;28;20450;-59
2023/09/27 11:33:03;;;;;;;3.53;3.10;;;25.30;62.10;;;;;;5054049;28;20498;-59
2023/09/27 11:35:30;;;;;;;4.80;4.10;;;25.30;62.20;;;;;;5053356;28;20543;-58
2023/09/27 11:38:12;;;;;;;5.37;4.00;;;25.20;62.30;;;;;;5053390;28;20451;-58
2023/09/27 11:40:41;;;;;;;4.00;3.60;;;25.20;62.50;;;;;;5054245;28;20424;-59
2023/09/27 11:43:08;;;;;;;5.30;4.03;;;25.20;62.70;;;;;;5053412;28;20559;-57
2023/09/27 11:45:44;;;;;;;4.90;4.20;;;25.20;62.70;;;;;;5053171;28;20930;-60
2023/09/27 11:48:11;;;;;;;3.70;3.27;;;25.30;62.70;;;;;;5053815;28;20421;-58
2023/09/27 11:50:38;;;;;;;5.00;4.50;;;25.30;63.40;;;;;;5053680;28;20440;-59
2023/09/27 11:53:05;;;;;;;4.77;3.73;;;25.40;62.70;;;;;;5053878;28;20480;-59
2023/09/27 11:55:33;;;;;;;4.80;4.40;;;25.30;62.70;;;;;;5053893;28;20516;-59
2023/09/27 11:58:01;;;;;;;5.00;3.93;;;25.30;62.80;;;;;;5053802;28;20555;-59
2023/09/27 12:00:29;;;;;;;4.13;3.70;;;25.30;62.90;;;;;;5053240;28;20446;-58
2023/09/27 12:02:56;;;;;;;4.67;3.30;;;25.30;63.10;;;;;;5053421;28;20465;-60
2023/09/27 12:05:23;;;;;;;4.73;3.57;;;25.30;63.20;;;;;;5053480;28;20456;-58
2023/09/27 12:07:49;;;;;;;6.00;4.40;;;25.30;63.10;;;;;;5053266;28;20451;-58
2023/09/27 12:10:17;;;;;;;4.73;3.90;;;25.40;63.00;;;;;;5053320;28;20440;-58
2023/09/27 12:12:45;;;;;;;7.47;3.43;;;25.40;62.90;;;;;;5052667;28;20769;-59
2023/09/27 12:15:12;;;;;;;4.43;3.27;;;25.50;62.80;;;;;;5053231;28;20454;-58
2023/09/27 12:17:38;;;;;;;4.60;3.73;;;25.50;62.50;;;;;;5052945;28;20443;-61
2023/09/27 12:20:07;;;;;;;4.63;3.87;;;25.60;62.30;;;;;;5052783;28;20443;-59
2023/09/27 12:22:34;;;;;;;5.30;4.20;;;25.70;61.90;;;;;;5053225;28;20452;-60
2023/09/27 12:25:01;;;;;;;3.93;3.53;;;25.70;61.40;;;;;;5053525;28;20805;-61
2023/09/27 12:27:27;;;;;;;5.17;3.40;;;25.70;61.30;;;;;;5053763;28;20847;-61
2023/09/27 12:29:56;;;;;;;4.17;3.50;;;25.90;61.10;;;;;;5053101;28;20440;-59
2023/09/27 12:32:22;;;;;;;4.27;3.50;;;26.00;60.60;;;;;;5054240;28;21003;-59
2023/09/27 12:34:49;;;;;;;6.90;3.53;;;26.10;60.20;;;;;;5056649;28;20466;-59
2023/09/27 12:37:16;;;;;;;3.87;3.30;;;26.10;60.00;;;;;;5056934;28;20455;-59
2023/09/27 12:39:43;;;;;;;3.83;3.50;;;26.20;59.90;;;;;;5057046;28;20440;-58
2023/09/27 12:42:09;;;;;;;4.80;2.83;;;26.20;59.80;;;;;;5056826;28;20829;-58
2023/09/27 12:44:36;;;;;;;4.50;2.57;;;26.20;59.80;;;;;;5056757;28;20455;-58
2023/09/27 12:47:04;;;;;;;3.37;3.07;;;26.20;59.60;;;;;;5056631;28;20431;-58
2023/09/27 12:49:32;;;;;;;4.83;3.30;;;26.20;59.50;;;;;;5056588;28;20448;-59
2023/09/27 12:51:59;;;;;;;3.67;2.60;;;26.20;59.50;;;;;;5056828;28;20456;-60
2023/09/27 12:54:26;;;;;;;6.63;2.90;;;26.20;59.30;;;;;;5056608;28;20467;-59